sensor_id;sensor_type;location;lat;lon;timestamp;P1;durP1;ratioP1;P2;durP2;ratioP2
12302;SDS011;6214;48.012;7.862;2022-11-21T00:01:10;12.20;;;1.40;;
12302;SDS011;6214;48.012;7.862;2022-11-21T00:03:58;13.82;;;1.80;;
12302;SDS011;6214;48.012;7.862;2022-11-21T00:06:25;14.07;;;1.70;;
12302;SDS011;6214;48.012;7.862;2022-11-21T00:08:52;12.90;;;1.63;;
12302;SDS011;6214;48.012;7.862;2022-11-21T00:11:20;14.30;;;2.45;;
12302;SDS011;6214;48.012;7.862;2022-11-21T00:13:47;12.45;;;1.63;;
12302;SDS011;6214;48.012;7.862;2022-11-21T00:16:14;13.80;;;1.50;;
12302;SDS011;6214;48.012;7.862;2022-11-21T00:18:42;13.40;;;1.77;;
12302;SDS011;6214;48.012;7.862;2022-11-21T00:21:13;13.25;;;1.75;;
12302;SDS011;6214;48.012;7.862;2022-11-21T00:23:42;13.93;;;1.60;;
12302;SDS011;6214;48.012;7.862;2022-11-21T00:26:10;13.38;;;1.48;;
12302;SDS011;6214;48.012;7.862;2022-11-21T00:28:38;13.45;;;1.80;;
12302;SDS011;6214;48.012;7.862;2022-11-21T00:31:05;13.05;;;1.60;;
12302;SDS011;6214;48.012;7.862;2022-11-21T00:33:35;12.95;;;1.75;;
12302;SDS011;6214;48.012;7.862;2022-11-21T00:36:05;13.40;;;1.60;;
12302;SDS011;6214;48.012;7.862;2022-11-21T00:38:33;15.13;;;2.00;;
12302;SDS011;6214;48.012;7.862;2022-11-21T00:41:00;12.55;;;1.30;;
12302;SDS011;6214;48.012;7.862;2022-11-21T00:43:27;13.50;;;1.65;;
12302;SDS011;6214;48.012;7.862;2022-11-21T00:45:54;13.13;;;1.67;;
12302;SDS011;6214;48.012;7.862;2022-11-21T00:48:21;15.40;;;1.70;;
12302;SDS011;6214;48.012;7.862;2022-11-21T00:50:48;13.90;;;1.80;;
12302;SDS011;6214;48.012;7.862;2022-11-21T00:53:15;13.63;;;1.98;;
12302;SDS011;6214;48.012;7.862;2022-11-21T00:55:42;13.30;;;1.75;;
12302;SDS011;6214;48.012;7.862;2022-11-21T00:58:09;13.45;;;1.80;;
12302;SDS011;6214;48.012;7.862;2022-11-21T01:00:36;14.27;;;1.80;;
12302;SDS011;6214;48.012;7.862;2022-11-21T01:03:03;13.00;;;1.73;;
12302;SDS011;6214;48.012;7.862;2022-11-21T01:05:31;12.88;;;1.60;;
12302;SDS011;6214;48.012;7.862;2022-11-21T01:07:58;13.63;;;1.90;;
12302;SDS011;6214;48.012;7.862;2022-11-21T01:10:25;14.37;;;1.77;;
12302;SDS011;6214;48.012;7.862;2022-11-21T01:12:52;15.23;;;1.90;;
12302;SDS011;6214;48.012;7.862;2022-11-21T01:15:19;13.65;;;1.80;;
12302;SDS011;6214;48.012;7.862;2022-11-21T01:17:46;13.80;;;1.80;;
12302;SDS011;6214;48.012;7.862;2022-11-21T01:20:13;13.20;;;1.70;;
12302;SDS011;6214;48.012;7.862;2022-11-21T01:22:40;14.68;;;2.10;;
12302;SDS011;6214;48.012;7.862;2022-11-21T01:25:07;14.45;;;1.73;;
12302;SDS011;6214;48.012;7.862;2022-11-21T01:27:34;13.40;;;1.50;;
12302;SDS011;6214;48.012;7.862;2022-11-21T01:30:01;14.48;;;1.55;;
12302;SDS011;6214;48.012;7.862;2022-11-21T01:32:29;13.50;;;1.70;;
12302;SDS011;6214;48.012;7.862;2022-11-21T01:34:56;15.30;;;1.85;;
12302;SDS011;6214;48.012;7.862;2022-11-21T01:37:23;13.70;;;1.50;;
12302;SDS011;6214;48.012;7.862;2022-11-21T01:39:50;13.20;;;1.80;;
12302;SDS011;6214;48.012;7.862;2022-11-21T01:42:17;13.20;;;1.60;;
12302;SDS011;6214;48.012;7.862;2022-11-21T01:44:46;14.15;;;1.65;;
12302;SDS011;6214;48.012;7.862;2022-11-21T01:47:15;13.65;;;1.50;;
12302;SDS011;6214;48.012;7.862;2022-11-21T01:49:43;14.17;;;2.23;;
12302;SDS011;6214;48.012;7.862;2022-11-21T01:52:16;12.40;;;1.60;;
12302;SDS011;6214;48.012;7.862;2022-11-21T01:54:56;14.30;;;2.05;;
12302;SDS011;6214;48.012;7.862;2022-11-21T01:57:31;14.07;;;1.80;;
12302;SDS011;6214;48.012;7.862;2022-11-21T02:00:06;13.93;;;1.98;;
12302;SDS011;6214;48.012;7.862;2022-11-21T02:02:38;13.20;;;1.80;;
12302;SDS011;6214;48.012;7.862;2022-11-21T02:05:10;14.35;;;1.60;;
12302;SDS011;6214;48.012;7.862;2022-11-21T02:07:43;14.98;;;1.73;;
12302;SDS011;6214;48.012;7.862;2022-11-21T02:10:12;13.40;;;1.50;;
12302;SDS011;6214;48.012;7.862;2022-11-21T02:15:22;15.87;;;1.80;;
12302;SDS011;6214;48.012;7.862;2022-11-21T02:17:51;13.80;;;1.60;;
12302;SDS011;6214;48.012;7.862;2022-11-21T02:20:18;14.57;;;1.63;;
12302;SDS011;6214;48.012;7.862;2022-11-21T02:25:55;13.02;;;1.40;;
12302;SDS011;6214;48.012;7.862;2022-11-21T02:28:22;13.20;;;1.50;;
12302;SDS011;6214;48.012;7.862;2022-11-21T02:30:50;14.45;;;1.75;;
12302;SDS011;6214;48.012;7.862;2022-11-21T02:33:17;13.13;;;1.40;;
12302;SDS011;6214;48.012;7.862;2022-11-21T02:35:44;14.10;;;1.83;;
12302;SDS011;6214;48.012;7.862;2022-11-21T02:38:30;12.95;;;1.60;;
12302;SDS011;6214;48.012;7.862;2022-11-21T02:41:08;13.85;;;1.80;;
12302;SDS011;6214;48.012;7.862;2022-11-21T02:43:42;14.30;;;1.70;;
12302;SDS011;6214;48.012;7.862;2022-11-21T02:46:18;13.32;;;1.65;;
12302;SDS011;6214;48.012;7.862;2022-11-21T02:48:45;15.47;;;1.87;;
12302;SDS011;6214;48.012;7.862;2022-11-21T02:51:12;15.57;;;2.20;;
12302;SDS011;6214;48.012;7.862;2022-11-21T02:53:39;13.70;;;1.65;;
12302;SDS011;6214;48.012;7.862;2022-11-21T02:56:06;13.65;;;1.60;;
12302;SDS011;6214;48.012;7.862;2022-11-21T02:58:33;13.65;;;1.55;;
12302;SDS011;6214;48.012;7.862;2022-11-21T03:01:00;13.38;;;1.50;;
12302;SDS011;6214;48.012;7.862;2022-11-21T03:03:27;12.70;;;1.70;;
12302;SDS011;6214;48.012;7.862;2022-11-21T03:05:54;13.50;;;1.50;;
12302;SDS011;6214;48.012;7.862;2022-11-21T03:08:21;11.80;;;1.20;;
12302;SDS011;6214;48.012;7.862;2022-11-21T03:10:48;12.98;;;1.52;;
12302;SDS011;6214;48.012;7.862;2022-11-21T03:13:15;12.88;;;1.60;;
12302;SDS011;6214;48.012;7.862;2022-11-21T03:15:42;13.88;;;1.67;;
12302;SDS011;6214;48.012;7.862;2022-11-21T03:18:09;14.73;;;1.40;;
12302;SDS011;6214;48.012;7.862;2022-11-21T03:20:36;13.20;;;1.65;;
12302;SDS011;6214;48.012;7.862;2022-11-21T03:23:03;14.30;;;1.60;;
12302;SDS011;6214;48.012;7.862;2022-11-21T03:25:30;14.10;;;1.60;;
12302;SDS011;6214;48.012;7.862;2022-11-21T03:27:57;12.18;;;1.23;;
12302;SDS011;6214;48.012;7.862;2022-11-21T03:30:24;13.77;;;1.60;;
12302;SDS011;6214;48.012;7.862;2022-11-21T03:32:55;13.63;;;1.60;;
12302;SDS011;6214;48.012;7.862;2022-11-21T03:35:23;12.57;;;1.10;;
12302;SDS011;6214;48.012;7.862;2022-11-21T03:37:50;12.40;;;1.40;;
12302;SDS011;6214;48.012;7.862;2022-11-21T03:40:17;13.77;;;1.52;;
12302;SDS011;6214;48.012;7.862;2022-11-21T03:42:44;13.55;;;1.50;;
12302;SDS011;6214;48.012;7.862;2022-11-21T03:45:11;13.60;;;1.70;;
12302;SDS011;6214;48.012;7.862;2022-11-21T03:47:38;12.30;;;1.40;;
12302;SDS011;6214;48.012;7.862;2022-11-21T03:50:05;13.37;;;1.40;;
12302;SDS011;6214;48.012;7.862;2022-11-21T03:52:32;13.50;;;1.20;;
12302;SDS011;6214;48.012;7.862;2022-11-21T03:54:59;13.70;;;1.50;;
12302;SDS011;6214;48.012;7.862;2022-11-21T03:57:26;13.80;;;1.80;;
12302;SDS011;6214;48.012;7.862;2022-11-21T03:59:53;14.57;;;1.50;;
12302;SDS011;6214;48.012;7.862;2022-11-21T04:02:20;12.90;;;1.40;;
12302;SDS011;6214;48.012;7.862;2022-11-21T04:04:47;13.13;;;1.30;;
12302;SDS011;6214;48.012;7.862;2022-11-21T04:07:14;13.32;;;1.65;;
12302;SDS011;6214;48.012;7.862;2022-11-21T04:09:41;13.05;;;1.17;;
12302;SDS011;6214;48.012;7.862;2022-11-21T04:12:08;13.90;;;2.13;;
12302;SDS011;6214;48.012;7.862;2022-11-21T04:14:35;14.10;;;1.80;;
12302;SDS011;6214;48.012;7.862;2022-11-21T04:17:02;12.52;;;1.70;;
12302;SDS011;6214;48.012;7.862;2022-11-21T04:19:29;13.38;;;1.83;;
12302;SDS011;6214;48.012;7.862;2022-11-21T04:21:56;13.13;;;1.88;;
12302;SDS011;6214;48.012;7.862;2022-11-21T04:24:23;13.60;;;1.60;;
12302;SDS011;6214;48.012;7.862;2022-11-21T04:26:52;13.98;;;1.80;;
12302;SDS011;6214;48.012;7.862;2022-11-21T04:29:20;13.52;;;2.00;;
12302;SDS011;6214;48.012;7.862;2022-11-21T04:31:47;13.07;;;1.67;;
12302;SDS011;6214;48.012;7.862;2022-11-21T04:34:14;14.00;;;1.90;;
12302;SDS011;6214;48.012;7.862;2022-11-21T04:36:40;14.77;;;1.90;;
12302;SDS011;6214;48.012;7.862;2022-11-21T04:39:07;13.30;;;1.60;;
12302;SDS011;6214;48.012;7.862;2022-11-21T04:41:34;13.63;;;2.40;;
12302;SDS011;6214;48.012;7.862;2022-11-21T04:44:02;14.40;;;1.98;;
12302;SDS011;6214;48.012;7.862;2022-11-21T04:46:29;13.68;;;2.05;;
12302;SDS011;6214;48.012;7.862;2022-11-21T04:48:55;13.93;;;1.70;;
12302;SDS011;6214;48.012;7.862;2022-11-21T04:51:22;13.70;;;1.90;;
12302;SDS011;6214;48.012;7.862;2022-11-21T04:53:49;15.05;;;1.70;;
12302;SDS011;6214;48.012;7.862;2022-11-21T04:56:16;14.45;;;1.60;;
12302;SDS011;6214;48.012;7.862;2022-11-21T04:58:43;13.40;;;1.50;;
12302;SDS011;6214;48.012;7.862;2022-11-21T05:01:10;12.93;;;1.80;;
12302;SDS011;6214;48.012;7.862;2022-11-21T05:03:37;13.57;;;1.92;;
12302;SDS011;6214;48.012;7.862;2022-11-21T05:06:04;13.95;;;1.70;;
12302;SDS011;6214;48.012;7.862;2022-11-21T05:08:31;13.18;;;1.80;;
12302;SDS011;6214;48.012;7.862;2022-11-21T05:10:58;12.90;;;1.70;;
12302;SDS011;6214;48.012;7.862;2022-11-21T05:13:43;13.70;;;1.50;;
12302;SDS011;6214;48.012;7.862;2022-11-21T05:16:10;13.60;;;1.48;;
12302;SDS011;6214;48.012;7.862;2022-11-21T05:18:37;13.60;;;1.40;;
12302;SDS011;6214;48.012;7.862;2022-11-21T05:21:04;13.38;;;1.60;;
12302;SDS011;6214;48.012;7.862;2022-11-21T05:23:31;13.38;;;1.63;;
12302;SDS011;6214;48.012;7.862;2022-11-21T05:25:58;14.90;;;1.92;;
12302;SDS011;6214;48.012;7.862;2022-11-21T05:28:25;12.10;;;1.50;;
12302;SDS011;6214;48.012;7.862;2022-11-21T05:30:52;12.80;;;1.70;;
12302;SDS011;6214;48.012;7.862;2022-11-21T05:33:19;14.50;;;1.70;;
12302;SDS011;6214;48.012;7.862;2022-11-21T05:35:46;12.35;;;1.40;;
12302;SDS011;6214;48.012;7.862;2022-11-21T05:38:13;13.85;;;1.80;;
12302;SDS011;6214;48.012;7.862;2022-11-21T05:40:40;12.85;;;1.67;;
12302;SDS011;6214;48.012;7.862;2022-11-21T05:43:08;14.20;;;1.60;;
12302;SDS011;6214;48.012;7.862;2022-11-21T05:45:55;12.07;;;1.30;;
12302;SDS011;6214;48.012;7.862;2022-11-21T05:48:22;13.00;;;1.40;;
12302;SDS011;6214;48.012;7.862;2022-11-21T05:50:49;12.18;;;1.55;;
12302;SDS011;6214;48.012;7.862;2022-11-21T05:53:16;13.07;;;1.45;;
12302;SDS011;6214;48.012;7.862;2022-11-21T05:55:43;13.50;;;1.60;;
12302;SDS011;6214;48.012;7.862;2022-11-21T05:58:10;14.40;;;1.80;;
12302;SDS011;6214;48.012;7.862;2022-11-21T06:00:37;13.27;;;1.50;;
12302;SDS011;6214;48.012;7.862;2022-11-21T06:03:05;13.20;;;1.60;;
12302;SDS011;6214;48.012;7.862;2022-11-21T06:06:13;13.20;;;1.50;;
12302;SDS011;6214;48.012;7.862;2022-11-21T06:08:45;12.57;;;1.50;;
12302;SDS011;6214;48.012;7.862;2022-11-21T06:11:13;12.13;;;1.38;;
12302;SDS011;6214;48.012;7.862;2022-11-21T06:13:41;13.30;;;1.60;;
12302;SDS011;6214;48.012;7.862;2022-11-21T06:16:10;12.57;;;1.30;;
12302;SDS011;6214;48.012;7.862;2022-11-21T06:18:42;12.93;;;1.50;;
12302;SDS011;6214;48.012;7.862;2022-11-21T06:23:43;14.27;;;1.48;;
12302;SDS011;6214;48.012;7.862;2022-11-21T06:26:11;13.50;;;1.65;;
12302;SDS011;6214;48.012;7.862;2022-11-21T06:28:43;14.20;;;1.60;;
12302;SDS011;6214;48.012;7.862;2022-11-21T06:31:12;12.57;;;1.60;;
12302;SDS011;6214;48.012;7.862;2022-11-21T06:33:42;11.90;;;1.40;;
12302;SDS011;6214;48.012;7.862;2022-11-21T06:36:13;13.20;;;1.50;;
12302;SDS011;6214;48.012;7.862;2022-11-21T06:38:42;12.90;;;1.50;;
12302;SDS011;6214;48.012;7.862;2022-11-21T06:41:17;13.80;;;1.50;;
12302;SDS011;6214;48.012;7.862;2022-11-21T06:43:46;12.57;;;1.40;;
12302;SDS011;6214;48.012;7.862;2022-11-21T06:46:13;13.07;;;1.60;;
12302;SDS011;6214;48.012;7.862;2022-11-21T06:48:41;13.80;;;1.45;;
12302;SDS011;6214;48.012;7.862;2022-11-21T06:51:14;12.35;;;1.40;;
12302;SDS011;6214;48.012;7.862;2022-11-21T06:53:44;13.70;;;1.63;;
12302;SDS011;6214;48.012;7.862;2022-11-21T06:56:11;13.00;;;1.70;;
12302;SDS011;6214;48.012;7.862;2022-11-21T06:58:41;12.98;;;1.65;;
12302;SDS011;6214;48.012;7.862;2022-11-21T07:01:08;12.77;;;1.20;;
12302;SDS011;6214;48.012;7.862;2022-11-21T07:03:36;13.20;;;1.38;;
12302;SDS011;6214;48.012;7.862;2022-11-21T07:06:03;13.27;;;1.60;;
12302;SDS011;6214;48.012;7.862;2022-11-21T07:08:31;12.73;;;1.48;;
12302;SDS011;6214;48.012;7.862;2022-11-21T07:11:04;14.57;;;1.70;;
12302;SDS011;6214;48.012;7.862;2022-11-21T07:13:51;13.52;;;1.48;;
12302;SDS011;6214;48.012;7.862;2022-11-21T07:16:18;12.27;;;1.40;;
12302;SDS011;6214;48.012;7.862;2022-11-21T07:18:45;13.50;;;1.60;;
12302;SDS011;6214;48.012;7.862;2022-11-21T07:21:12;12.50;;;1.50;;
12302;SDS011;6214;48.012;7.862;2022-11-21T07:23:39;12.95;;;1.50;;
12302;SDS011;6214;48.012;7.862;2022-11-21T07:26:06;14.15;;;1.83;;
12302;SDS011;6214;48.012;7.862;2022-11-21T07:28:35;12.40;;;1.55;;
12302;SDS011;6214;48.012;7.862;2022-11-21T07:31:02;13.45;;;1.52;;
12302;SDS011;6214;48.012;7.862;2022-11-21T07:33:38;12.85;;;1.30;;
12302;SDS011;6214;48.012;7.862;2022-11-21T07:36:05;14.63;;;2.13;;
12302;SDS011;6214;48.012;7.862;2022-11-21T07:38:32;13.18;;;2.10;;
12302;SDS011;6214;48.012;7.862;2022-11-21T07:40:59;14.32;;;1.90;;
12302;SDS011;6214;48.012;7.862;2022-11-21T07:43:26;14.68;;;2.20;;
12302;SDS011;6214;48.012;7.862;2022-11-21T07:45:53;14.25;;;2.30;;
12302;SDS011;6214;48.012;7.862;2022-11-21T07:48:21;15.10;;;1.80;;
12302;SDS011;6214;48.012;7.862;2022-11-21T07:50:48;15.20;;;2.40;;
12302;SDS011;6214;48.012;7.862;2022-11-21T07:53:15;13.88;;;1.98;;
12302;SDS011;6214;48.012;7.862;2022-11-21T07:55:42;15.48;;;1.90;;
12302;SDS011;6214;48.012;7.862;2022-11-21T07:58:10;14.68;;;1.67;;
12302;SDS011;6214;48.012;7.862;2022-11-21T08:00:38;15.20;;;1.95;;
12302;SDS011;6214;48.012;7.862;2022-11-21T08:03:08;16.98;;;2.60;;
12302;SDS011;6214;48.012;7.862;2022-11-21T08:05:38;16.65;;;2.33;;
12302;SDS011;6214;48.012;7.862;2022-11-21T08:08:07;14.60;;;1.90;;
12302;SDS011;6214;48.012;7.862;2022-11-21T08:10:39;15.32;;;1.88;;
12302;SDS011;6214;48.012;7.862;2022-11-21T08:13:08;20.33;;;2.40;;
12302;SDS011;6214;48.012;7.862;2022-11-21T08:15:36;16.95;;;2.38;;
12302;SDS011;6214;48.012;7.862;2022-11-21T08:18:07;14.85;;;2.13;;
12302;SDS011;6214;48.012;7.862;2022-11-21T08:20:38;16.88;;;2.97;;
12302;SDS011;6214;48.012;7.862;2022-11-21T08:23:05;16.00;;;2.90;;
12302;SDS011;6214;48.012;7.862;2022-11-21T08:25:33;15.40;;;2.30;;
12302;SDS011;6214;48.012;7.862;2022-11-21T08:28:02;15.27;;;2.00;;
12302;SDS011;6214;48.012;7.862;2022-11-21T08:30:30;14.40;;;2.60;;
12302;SDS011;6214;48.012;7.862;2022-11-21T08:32:58;17.60;;;2.70;;
12302;SDS011;6214;48.012;7.862;2022-11-21T08:35:25;15.02;;;2.30;;
12302;SDS011;6214;48.012;7.862;2022-11-21T08:37:56;16.20;;;2.28;;
12302;SDS011;6214;48.012;7.862;2022-11-21T08:40:27;15.48;;;1.90;;
12302;SDS011;6214;48.012;7.862;2022-11-21T08:42:56;16.17;;;2.40;;
12302;SDS011;6214;48.012;7.862;2022-11-21T08:45:24;15.38;;;2.10;;
12302;SDS011;6214;48.012;7.862;2022-11-21T08:47:51;15.52;;;2.10;;
12302;SDS011;6214;48.012;7.862;2022-11-21T08:50:19;16.00;;;2.30;;
12302;SDS011;6214;48.012;7.862;2022-11-21T08:52:46;15.82;;;2.20;;
12302;SDS011;6214;48.012;7.862;2022-11-21T08:55:14;15.32;;;2.33;;
12302;SDS011;6214;48.012;7.862;2022-11-21T08:57:41;17.48;;;2.70;;
12302;SDS011;6214;48.012;7.862;2022-11-21T09:00:09;17.02;;;2.38;;
12302;SDS011;6214;48.012;7.862;2022-11-21T09:02:40;16.60;;;2.40;;
12302;SDS011;6214;48.012;7.862;2022-11-21T09:05:07;15.47;;;2.70;;
12302;SDS011;6214;48.012;7.862;2022-11-21T09:07:35;18.10;;;2.50;;
12302;SDS011;6214;48.012;7.862;2022-11-21T09:10:02;17.23;;;2.30;;
12302;SDS011;6214;48.012;7.862;2022-11-21T09:12:30;15.40;;;2.10;;
12302;SDS011;6214;48.012;7.862;2022-11-21T09:14:57;15.38;;;2.30;;
12302;SDS011;6214;48.012;7.862;2022-11-21T09:17:42;16.90;;;4.18;;
12302;SDS011;6214;48.012;7.862;2022-11-21T09:20:28;16.63;;;2.65;;
12302;SDS011;6214;48.012;7.862;2022-11-21T09:22:55;17.42;;;2.58;;
12302;SDS011;6214;48.012;7.862;2022-11-21T09:25:22;14.82;;;2.20;;
12302;SDS011;6214;48.012;7.862;2022-11-21T09:27:49;15.93;;;2.40;;
12302;SDS011;6214;48.012;7.862;2022-11-21T09:30:16;15.90;;;2.67;;
12302;SDS011;6214;48.012;7.862;2022-11-21T09:32:43;16.20;;;2.37;;
12302;SDS011;6214;48.012;7.862;2022-11-21T09:35:10;15.82;;;2.95;;
12302;SDS011;6214;48.012;7.862;2022-11-21T09:37:38;16.45;;;2.67;;
12302;SDS011;6214;48.012;7.862;2022-11-21T09:40:05;17.60;;;3.10;;
12302;SDS011;6214;48.012;7.862;2022-11-21T09:48:07;17.15;;;3.00;;
12302;SDS011;6214;48.012;7.862;2022-11-21T09:50:41;13.65;;;1.73;;
12302;SDS011;6214;48.012;7.862;2022-11-21T09:53:25;17.17;;;2.67;;
12302;SDS011;6214;48.012;7.862;2022-11-21T09:55:55;15.90;;;2.53;;
12302;SDS011;6214;48.012;7.862;2022-11-21T09:58:28;17.48;;;2.90;;
12302;SDS011;6214;48.012;7.862;2022-11-21T10:01:14;16.05;;;2.80;;
12302;SDS011;6214;48.012;7.862;2022-11-21T10:03:43;16.23;;;2.65;;
12302;SDS011;6214;48.012;7.862;2022-11-21T10:06:16;16.73;;;3.00;;
12302;SDS011;6214;48.012;7.862;2022-11-21T10:08:56;17.33;;;3.20;;
12302;SDS011;6214;48.012;7.862;2022-11-21T10:14:33;16.80;;;3.00;;
12302;SDS011;6214;48.012;7.862;2022-11-21T10:25:56;16.42;;;3.00;;
12302;SDS011;6214;48.012;7.862;2022-11-21T10:28:42;16.13;;;2.40;;
12302;SDS011;6214;48.012;7.862;2022-11-21T10:31:14;17.42;;;2.80;;
12302;SDS011;6214;48.012;7.862;2022-11-21T10:33:43;16.00;;;2.97;;
12302;SDS011;6214;48.012;7.862;2022-11-21T10:36:12;17.93;;;3.50;;
12302;SDS011;6214;48.012;7.862;2022-11-21T10:39:19;18.75;;;2.97;;
12302;SDS011;6214;48.012;7.862;2022-11-21T10:42:11;17.77;;;2.97;;
12302;SDS011;6214;48.012;7.862;2022-11-21T10:44:48;15.68;;;3.00;;
12302;SDS011;6214;48.012;7.862;2022-11-21T10:47:34;16.77;;;2.40;;
12302;SDS011;6214;48.012;7.862;2022-11-21T10:52:56;16.73;;;2.50;;
12302;SDS011;6214;48.012;7.862;2022-11-21T10:55:25;16.70;;;2.40;;
12302;SDS011;6214;48.012;7.862;2022-11-21T10:57:52;15.60;;;1.90;;
12302;SDS011;6214;48.012;7.862;2022-11-21T11:00:24;17.63;;;2.50;;
12302;SDS011;6214;48.012;7.862;2022-11-21T11:05:23;14.10;;;2.37;;
12302;SDS011;6214;48.012;7.862;2022-11-21T11:08:08;18.38;;;2.63;;
12302;SDS011;6214;48.012;7.862;2022-11-21T11:10:40;15.88;;;2.28;;
12302;SDS011;6214;48.012;7.862;2022-11-21T11:13:16;16.58;;;3.22;;
12302;SDS011;6214;48.012;7.862;2022-11-21T11:16:17;18.05;;;3.90;;
12302;SDS011;6214;48.012;7.862;2022-11-21T11:19:14;15.20;;;2.30;;
12302;SDS011;6214;48.012;7.862;2022-11-21T11:21:50;14.50;;;1.93;;
12302;SDS011;6214;48.012;7.862;2022-11-21T11:24:24;14.98;;;2.20;;
12302;SDS011;6214;48.012;7.862;2022-11-21T11:29:29;13.95;;;2.28;;
12302;SDS011;6214;48.012;7.862;2022-11-21T11:37:38;14.63;;;2.05;;
12302;SDS011;6214;48.012;7.862;2022-11-21T11:49:01;14.70;;;2.20;;
12302;SDS011;6214;48.012;7.862;2022-11-21T11:51:53;14.85;;;2.10;;
12302;SDS011;6214;48.012;7.862;2022-11-21T11:54:23;18.65;;;5.22;;
12302;SDS011;6214;48.012;7.862;2022-11-21T11:56:55;14.75;;;2.65;;
12302;SDS011;6214;48.012;7.862;2022-11-21T11:59:30;13.90;;;1.70;;
12302;SDS011;6214;48.012;7.862;2022-11-21T12:04:47;15.82;;;1.90;;
12302;SDS011;6214;48.012;7.862;2022-11-21T12:07:32;14.40;;;1.90;;
12302;SDS011;6214;48.012;7.862;2022-11-21T12:10:30;15.88;;;2.00;;
12302;SDS011;6214;48.012;7.862;2022-11-21T12:13:23;13.23;;;2.00;;
12302;SDS011;6214;48.012;7.862;2022-11-21T12:15:53;14.18;;;2.10;;
12302;SDS011;6214;48.012;7.862;2022-11-21T12:18:47;14.30;;;2.10;;
12302;SDS011;6214;48.012;7.862;2022-11-21T12:21:21;14.80;;;2.00;;
12302;SDS011;6214;48.012;7.862;2022-11-21T12:23:52;14.18;;;1.80;;
12302;SDS011;6214;48.012;7.862;2022-11-21T12:29:19;14.13;;;1.70;;
12302;SDS011;6214;48.012;7.862;2022-11-21T12:40:25;13.73;;;1.70;;
12302;SDS011;6214;48.012;7.862;2022-11-21T12:43:21;14.57;;;1.60;;
12302;SDS011;6214;48.012;7.862;2022-11-21T12:46:09;15.65;;;2.00;;
12302;SDS011;6214;48.012;7.862;2022-11-21T12:57:32;14.50;;;1.80;;
12302;SDS011;6214;48.012;7.862;2022-11-21T13:05:20;13.00;;;1.50;;
12302;SDS011;6214;48.012;7.862;2022-11-21T13:07:53;13.90;;;1.50;;
12302;SDS011;6214;48.012;7.862;2022-11-21T13:10:35;13.00;;;1.30;;
12302;SDS011;6214;48.012;7.862;2022-11-21T13:13:29;13.15;;;1.40;;
12302;SDS011;6214;48.012;7.862;2022-11-21T13:16:07;12.15;;;1.60;;
12302;SDS011;6214;48.012;7.862;2022-11-21T13:18:41;14.00;;;1.50;;
12302;SDS011;6214;48.012;7.862;2022-11-21T13:24:59;13.82;;;1.70;;
12302;SDS011;6214;48.012;7.862;2022-11-21T13:32:52;14.13;;;1.60;;
12302;SDS011;6214;48.012;7.862;2022-11-21T13:40:41;13.32;;;1.70;;
12302;SDS011;6214;48.012;7.862;2022-11-21T13:43:27;13.10;;;1.40;;
12302;SDS011;6214;48.012;7.862;2022-11-21T13:46:00;14.65;;;1.67;;
12302;SDS011;6214;48.012;7.862;2022-11-21T13:51:33;14.60;;;1.65;;
12302;SDS011;6214;48.012;7.862;2022-11-21T14:08:22;14.70;;;1.60;;
12302;SDS011;6214;48.012;7.862;2022-11-21T14:10:52;14.30;;;1.50;;
12302;SDS011;6214;48.012;7.862;2022-11-21T14:13:28;14.52;;;1.80;;
12302;SDS011;6214;48.012;7.862;2022-11-21T14:16:03;12.93;;;1.23;;
12302;SDS011;6214;48.012;7.862;2022-11-21T14:18:41;12.10;;;1.27;;
12302;SDS011;6214;48.012;7.862;2022-11-21T14:23:57;15.20;;;1.95;;
12302;SDS011;6214;48.012;7.862;2022-11-21T14:26:30;15.98;;;1.80;;
12302;SDS011;6214;48.012;7.862;2022-11-21T14:29:17;12.90;;;1.40;;
12302;SDS011;6214;48.012;7.862;2022-11-21T14:31:48;13.88;;;1.60;;
12302;SDS011;6214;48.012;7.862;2022-11-21T14:34:25;13.75;;;1.60;;
12302;SDS011;6214;48.012;7.862;2022-11-21T14:36:54;14.27;;;1.90;;
12302;SDS011;6214;48.012;7.862;2022-11-21T14:39:28;15.32;;;2.70;;
12302;SDS011;6214;48.012;7.862;2022-11-21T14:42:04;14.53;;;2.87;;
12302;SDS011;6214;48.012;7.862;2022-11-21T14:44:36;16.15;;;3.00;;
12302;SDS011;6214;48.012;7.862;2022-11-21T14:47:14;13.82;;;2.60;;
12302;SDS011;6214;48.012;7.862;2022-11-21T14:49:55;15.48;;;2.30;;
12302;SDS011;6214;48.012;7.862;2022-11-21T14:52:26;13.00;;;2.10;;
12302;SDS011;6214;48.012;7.862;2022-11-21T14:55:03;14.00;;;2.20;;
12302;SDS011;6214;48.012;7.862;2022-11-21T14:57:52;13.15;;;2.00;;
12302;SDS011;6214;48.012;7.862;2022-11-21T15:00:20;14.52;;;1.95;;
12302;SDS011;6214;48.012;7.862;2022-11-21T15:03:20;14.93;;;2.40;;
12302;SDS011;6214;48.012;7.862;2022-11-21T15:05:49;14.77;;;2.50;;
12302;SDS011;6214;48.012;7.862;2022-11-21T15:08:33;14.40;;;2.30;;
12302;SDS011;6214;48.012;7.862;2022-11-21T15:11:23;13.98;;;2.20;;
12302;SDS011;6214;48.012;7.862;2022-11-21T15:13:58;12.90;;;1.50;;
12302;SDS011;6214;48.012;7.862;2022-11-21T15:16:41;13.95;;;1.90;;
12302;SDS011;6214;48.012;7.862;2022-11-21T15:19:09;13.68;;;1.60;;
12302;SDS011;6214;48.012;7.862;2022-11-21T15:21:36;13.38;;;1.80;;
12302;SDS011;6214;48.012;7.862;2022-11-21T15:24:26;14.57;;;1.70;;
12302;SDS011;6214;48.012;7.862;2022-11-21T15:26:54;14.85;;;1.85;;
12302;SDS011;6214;48.012;7.862;2022-11-21T15:29:21;14.80;;;1.75;;
12302;SDS011;6214;48.012;7.862;2022-11-21T15:32:08;12.65;;;1.75;;
12302;SDS011;6214;48.012;7.862;2022-11-21T15:34:42;13.95;;;1.90;;
12302;SDS011;6214;48.012;7.862;2022-11-21T15:37:15;13.90;;;1.90;;
12302;SDS011;6214;48.012;7.862;2022-11-21T15:39:44;14.27;;;2.30;;
12302;SDS011;6214;48.012;7.862;2022-11-21T15:45:21;14.50;;;2.40;;
12302;SDS011;6214;48.012;7.862;2022-11-21T15:47:51;15.13;;;4.00;;
12302;SDS011;6214;48.012;7.862;2022-11-21T15:50:21;19.90;;;7.90;;
12302;SDS011;6214;48.012;7.862;2022-11-21T15:52:50;21.35;;;8.90;;
12302;SDS011;6214;48.012;7.862;2022-11-21T15:55:19;19.65;;;6.78;;
12302;SDS011;6214;48.012;7.862;2022-11-21T15:57:48;19.05;;;6.85;;
12302;SDS011;6214;48.012;7.862;2022-11-21T16:00:15;14.50;;;3.77;;
12302;SDS011;6214;48.012;7.862;2022-11-21T16:02:42;15.88;;;3.10;;
12302;SDS011;6214;48.012;7.862;2022-11-21T16:05:12;13.73;;;2.40;;
12302;SDS011;6214;48.012;7.862;2022-11-21T16:07:40;12.50;;;1.90;;
12302;SDS011;6214;48.012;7.862;2022-11-21T16:10:08;14.30;;;2.15;;
12302;SDS011;6214;48.012;7.862;2022-11-21T16:12:46;17.30;;;4.88;;
12302;SDS011;6214;48.012;7.862;2022-11-21T16:15:13;16.55;;;4.10;;
12302;SDS011;6214;48.012;7.862;2022-11-21T16:17:40;15.50;;;3.10;;
12302;SDS011;6214;48.012;7.862;2022-11-21T16:20:07;14.77;;;2.70;;
12302;SDS011;6214;48.012;7.862;2022-11-21T16:22:35;15.97;;;3.53;;
12302;SDS011;6214;48.012;7.862;2022-11-21T16:25:02;19.23;;;5.68;;
12302;SDS011;6214;48.012;7.862;2022-11-21T16:27:32;15.73;;;2.95;;
12302;SDS011;6214;48.012;7.862;2022-11-21T16:29:59;17.67;;;5.28;;
12302;SDS011;6214;48.012;7.862;2022-11-21T16:32:26;16.58;;;4.47;;
12302;SDS011;6214;48.012;7.862;2022-11-21T16:34:53;16.20;;;4.18;;
12302;SDS011;6214;48.012;7.862;2022-11-21T16:37:20;18.88;;;8.80;;
12302;SDS011;6214;48.012;7.862;2022-11-21T16:39:47;17.25;;;6.15;;
12302;SDS011;6214;48.012;7.862;2022-11-21T16:42:18;16.90;;;6.40;;
12302;SDS011;6214;48.012;7.862;2022-11-21T16:44:45;18.17;;;7.57;;
12302;SDS011;6214;48.012;7.862;2022-11-21T16:47:13;18.35;;;6.60;;
12302;SDS011;6214;48.012;7.862;2022-11-21T16:49:41;19.77;;;8.20;;
12302;SDS011;6214;48.012;7.862;2022-11-21T16:52:14;19.45;;;8.88;;
12302;SDS011;6214;48.012;7.862;2022-11-21T16:54:43;19.00;;;8.00;;
12302;SDS011;6214;48.012;7.862;2022-11-21T16:57:10;17.20;;;7.10;;
12302;SDS011;6214;48.012;7.862;2022-11-21T16:59:37;20.52;;;10.07;;
12302;SDS011;6214;48.012;7.862;2022-11-21T17:02:04;16.80;;;6.60;;
12302;SDS011;6214;48.012;7.862;2022-11-21T17:04:31;13.48;;;3.10;;